Time;durP1;ratioP1;P1;durP2;ratioP2;P2;SDS_P1;SDS_P2;PMS_P1;PMS_P2;Temp;Humidity;BMP_temperature;BMP_pressure;BME280_temperature;BME280_humidity;BME280_pressure;Samples;Min_cycle;Max_cycle;Signal;HPM_P1;HPM_P2
2021/03/04 00:00:57;;;;;;;5.97;2.35;;;8.40;99.90;;;;;;4430300;32;20506;-74
2021/03/04 00:03:23;;;;;;;17.12;4.40;;;8.40;99.90;;;;;;4430827;32;20452;-73
2021/03/04 00:05:48;;;;;;;7.25;3.03;;;8.40;99.90;;;;;;4431345;32;20073;-73
2021/03/04 00:08:14;;;;;;;3.60;1.87;;;8.40;99.90;;;;;;4429374;32;20065;-74
2021/03/04 00:10:39;;;;;;;9.13;2.85;;;8.20;99.90;;;;;;4415183;32;20506;-73
2021/03/04 00:13:05;;;;;;;10.57;1.62;;;8.30;99.90;;;;;;4415369;32;20073;-73
2021/03/04 00:15:32;;;;;;;4.57;2.22;;;8.10;99.90;;;;;;4414774;32;20498;-73
2021/03/04 00:17:58;;;;;;;4.90;2.37;;;8.00;99.90;;;;;;4414985;32;20121;-73
2021/03/04 00:20:27;;;;;;;8.88;3.05;;;8.00;99.90;;;;;;4414905;32;20070;-73
2021/03/04 00:22:53;;;;;;;4.78;2.75;;;8.00;99.90;;;;;;4415161;32;20481;-73
2021/03/04 00:25:20;;;;;;;11.00;2.15;;;8.00;99.90;;;;;;4415042;32;20073;-73
2021/03/04 00:27:46;;;;;;;6.12;2.20;;;8.00;99.90;;;;;;4415253;32;20062;-73
2021/03/04 00:30:15;;;;;;;22.87;2.92;;;8.00;99.90;;;;;;4414138;32;20069;-73
2021/03/04 00:32:41;;;;;;;4.93;1.92;;;8.00;99.90;;;;;;4414701;32;20070;-73
2021/03/04 00:35:07;;;;;;;6.05;2.08;;;7.90;99.90;;;;;;4414641;32;20431;-73
2021/03/04 00:37:32;;;;;;;8.43;2.25;;;7.90;99.90;;;;;;4415251;32;20069;-73
2021/03/04 00:39:58;;;;;;;11.55;3.10;;;7.80;99.90;;;;;;4414877;32;20515;-73
2021/03/04 00:42:24;;;;;;;10.35;2.50;;;7.80;99.90;;;;;;4414320;32;20062;-73
2021/03/04 00:44:49;;;;;;;3.12;1.67;;;7.80;99.90;;;;;;4414591;32;20502;-73
2021/03/04 00:47:15;;;;;;;22.20;2.30;;;7.90;99.90;;;;;;4413985;32;20073;-73
2021/03/04 00:49:41;;;;;;;13.40;2.22;;;7.70;99.90;;;;;;4415141;32;20120;-73
2021/03/04 00:52:07;;;;;;;4.25;2.12;;;7.70;99.90;;;;;;4414646;32;20062;-73
2021/03/04 00:54:32;;;;;;;5.28;2.33;;;7.70;99.90;;;;;;4416129;32;20531;-73
2021/03/04 00:56:58;;;;;;;1.77;1.62;;;7.60;99.90;;;;;;4414740;32;20066;-73
2021/03/04 00:59:23;;;;;;;3.65;1.70;;;7.50;99.90;;;;;;4413890;32;20094;-73
2021/03/04 01:01:49;;;;;;;10.20;2.87;;;7.60;99.90;;;;;;4414567;32;20066;-72
2021/03/04 01:04:14;;;;;;;4.47;2.58;;;7.60;99.90;;;;;;4414138;32;20073;-72
2021/03/04 01:06:40;;;;;;;16.73;3.20;;;7.60;99.90;;;;;;4415060;32;20061;-73
2021/03/04 01:09:06;;;;;;;14.25;3.08;;;7.60;99.90;;;;;;4423480;32;20185;-75
2021/03/04 01:11:32;;;;;;;11.30;3.20;;;7.60;99.90;;;;;;4429473;32;20241;-75
2021/03/04 01:13:58;;;;;;;18.33;5.05;;;7.60;99.90;;;;;;4429597;32;20077;-74
2021/03/04 01:16:23;;;;;;;8.05;3.15;;;7.60;99.90;;;;;;4430905;32;20069;-73
2021/03/04 01:18:49;;;;;;;8.63;3.90;;;7.50;99.90;;;;;;4429496;32;20086;-72
2021/03/04 01:21:14;;;;;;;5.78;2.45;;;7.50;99.90;;;;;;4429635;32;20089;-73
2021/03/04 01:23:40;;;;;;;8.52;3.15;;;7.40;99.90;;;;;;4429211;32;20404;-73
2021/03/04 01:26:05;;;;;;;3.53;2.17;;;7.40;99.90;;;;;;4429946;32;20064;-72
2021/03/04 01:28:31;;;;;;;7.95;3.20;;;7.40;99.90;;;;;;4429613;32;20061;-73
2021/03/04 01:30:56;;;;;;;14.90;4.18;;;7.30;99.90;;;;;;4430119;32;20590;-73
2021/03/04 01:33:22;;;;;;;8.80;2.90;;;7.30;99.90;;;;;;4430013;32;20092;-72
2021/03/04 01:35:47;;;;;;;4.80;3.00;;;7.40;99.90;;;;;;4430494;32;20077;-72
2021/03/04 01:38:14;;;;;;;5.32;2.45;;;7.40;99.90;;;;;;4429321;32;20073;-73
2021/03/04 01:40:39;;;;;;;6.20;2.85;;;7.30;99.90;;;;;;4429375;32;21002;-74
2021/03/04 01:43:05;;;;;;;9.35;3.50;;;7.40;99.90;;;;;;4430651;32;20072;-73
2021/03/04 01:45:31;;;;;;;7.45;2.65;;;7.40;99.90;;;;;;4429389;32;20090;-73
2021/03/04 01:47:57;;;;;;;12.77;2.78;;;7.30;99.90;;;;;;4429875;32;20530;-73
2021/03/04 01:50:25;;;;;;;10.00;4.53;;;7.30;99.90;;;;;;4429437;32;20065;-73
2021/03/04 01:52:51;;;;;;;5.03;2.50;;;7.20;99.90;;;;;;4429105;32;20093;-73
2021/03/04 01:55:18;;;;;;;5.55;2.58;;;7.20;99.90;;;;;;4430453;32;20057;-73
2021/03/04 01:57:45;;;;;;;6.37;2.55;;;7.20;99.90;;;;;;4430290;32;20078;-73
2021/03/04 02:00:12;;;;;;;9.07;2.95;;;7.20;99.90;;;;;;4428759;32;20069;-73
2021/03/04 02:03:33;;;;;;;14.68;4.40;;;7.20;99.90;;;;;;4429664;32;20069;-73
2021/03/04 02:05:58;;;;;;;3.80;2.47;;;7.10;99.90;;;;;;4422487;32;20121;-73
2021/03/04 02:08:31;;;;;;;4.40;2.40;;;7.10;99.90;;;;;;4425595;32;20077;-73
2021/03/04 02:11:06;;;;;;;6.78;2.92;;;7.10;99.90;;;;;;4413155;32;20061;-73
2021/03/04 02:13:40;;;;;;;4.78;2.10;;;7.10;99.90;;;;;;4413879;32;20132;-73
2021/03/04 02:16:33;;;;;;;11.27;3.65;;;7.10;99.90;;;;;;4414702;32;20112;-73
2021/03/04 02:19:04;;;;;;;4.78;2.33;;;7.10;99.90;;;;;;4415109;32;20421;-73
2021/03/04 02:21:50;;;;;;;12.45;5.28;;;7.00;99.90;;;;;;4413631;32;20128;-73
2021/03/04 02:24:45;;;;;;;13.07;3.95;;;7.00;99.90;;;;;;4412896;32;20117;-73
2021/03/04 02:27:15;;;;;;;13.52;4.45;;;6.90;99.90;;;;;;4413460;32;20449;-73
2021/03/04 02:29:47;;;;;;;5.60;3.15;;;6.90;99.90;;;;;;4413488;32;20498;-73
2021/03/04 02:32:15;;;;;;;6.32;3.62;;;6.90;99.90;;;;;;4415073;32;20073;-73
2021/03/04 02:34:48;;;;;;;10.27;4.00;;;6.80;99.90;;;;;;4414299;32;20456;-73
2021/03/04 02:37:17;;;;;;;9.55;3.30;;;6.80;99.90;;;;;;4414851;32;20425;-73
2021/03/04 02:39:45;;;;;;;7.30;3.28;;;6.80;99.90;;;;;;4414109;32;20076;-73
2021/03/04 02:42:16;;;;;;;4.60;2.87;;;6.80;99.90;;;;;;4413097;32;20061;-73
2021/03/04 02:44:41;;;;;;;7.95;2.90;;;6.70;99.90;;;;;;4413438;32;20077;-74
2021/03/04 02:47:08;;;;;;;5.10;3.35;;;6.80;99.90;;;;;;4413659;32;20168;-73
2021/03/04 02:49:35;;;;;;;10.52;3.72;;;6.70;99.90;;;;;;4413546;32;20093;-73
2021/03/04 02:52:01;;;;;;;15.85;2.42;;;6.70;99.90;;;;;;4413483;32;20116;-72
2021/03/04 02:54:28;;;;;;;6.43;2.97;;;6.70;99.90;;;;;;4413545;32;20506;-73
2021/03/04 02:56:54;;;;;;;9.20;4.12;;;6.70;99.90;;;;;;4413390;32;20085;-73
2021/03/04 02:59:21;;;;;;;7.07;3.20;;;6.60;99.90;;;;;;4413241;32;20308;-73
2021/03/04 03:01:47;;;;;;;7.95;3.05;;;6.60;99.90;;;;;;4413257;32;20069;-73
2021/03/04 03:04:13;;;;;;;3.45;2.22;;;6.60;99.90;;;;;;4413391;32;20543;-73
2021/03/04 03:06:41;;;;;;;13.02;3.47;;;6.60;99.90;;;;;;4412912;32;20082;-73
2021/03/04 03:09:07;;;;;;;5.03;3.15;;;6.60;99.90;;;;;;4420600;32;20519;-73
2021/03/04 03:11:34;;;;;;;5.35;3.40;;;6.70;99.90;;;;;;4427984;32;20073;-73
2021/03/04 03:14:00;;;;;;;9.13;3.60;;;6.70;99.90;;;;;;4428501;32;20127;-73
2021/03/04 03:16:27;;;;;;;3.12;2.35;;;6.60;99.90;;;;;;4429308;32;20078;-73
2021/03/04 03:18:53;;;;;;;18.15;2.92;;;6.50;99.90;;;;;;4429858;32;20124;-73
2021/03/04 03:21:19;;;;;;;27.83;4.85;;;6.50;99.90;;;;;;4428367;32;20070;-73
2021/03/04 03:23:44;;;;;;;5.05;2.75;;;6.50;99.90;;;;;;4428199;32;20513;-73
2021/03/04 03:26:10;;;;;;;4.65;3.03;;;6.50;99.90;;;;;;4428678;32;20120;-73
2021/03/04 03:28:35;;;;;;;28.05;3.67;;;6.40;99.90;;;;;;4429536;32;20077;-73
2021/03/04 03:31:01;;;;;;;11.23;3.03;;;6.40;99.90;;;;;;4428638;32;20069;-73
2021/03/04 03:33:28;;;;;;;16.17;2.83;;;6.40;99.90;;;;;;4428146;32;20098;-73
2021/03/04 03:35:53;;;;;;;20.67;2.90;;;6.50;99.90;;;;;;4428780;32;20109;-73
2021/03/04 03:38:20;;;;;;;14.30;3.15;;;6.50;99.90;;;;;;4429225;32;20074;-73
2021/03/04 03:40:49;;;;;;;3.47;2.25;;;6.50;99.90;;;;;;4427535;32;20126;-73
2021/03/04 03:43:16;;;;;;;6.78;3.97;;;6.40;99.90;;;;;;4428040;32;20116;-73
2021/03/04 03:45:44;;;;;;;7.00;3.30;;;6.40;99.90;;;;;;4428678;32;20108;-73
2021/03/04 03:48:12;;;;;;;6.57;2.90;;;6.40;99.90;;;;;;4429245;32;20580;-73
2021/03/04 03:50:41;;;;;;;8.07;3.87;;;6.40;99.90;;;;;;4428147;32;20078;-73
2021/03/04 03:53:07;;;;;;;6.03;1.83;;;6.40;99.90;;;;;;4427770;32;20061;-73
2021/03/04 03:55:33;;;;;;;4.87;1.83;;;6.30;99.90;;;;;;4428554;32;20061;-73
2021/03/04 03:58:00;;;;;;;10.20;2.78;;;6.20;99.90;;;;;;4427720;32;20412;-73
2021/03/04 04:00:26;;;;;;;4.62;1.92;;;6.10;99.90;;;;;;4427501;32;20120;-73
2021/03/04 04:02:58;;;;;;;17.60;3.67;;;6.10;99.90;;;;;;4427647;32;20069;-72
2021/03/04 04:05:24;;;;;;;13.20;2.50;;;6.00;99.90;;;;;;4429499;32;20507;-73
2021/03/04 04:07:53;;;;;;;11.40;2.37;;;5.90;99.90;;;;;;4428152;32;20120;-72
2021/03/04 04:10:19;;;;;;;9.32;2.65;;;5.90;99.90;;;;;;4397551;32;20108;-73
2021/03/04 04:12:45;;;;;;;2.25;1.67;;;5.90;99.90;;;;;;4397955;32;20158;-72
2021/03/04 04:15:12;;;;;;;3.45;1.50;;;5.80;99.90;;;;;;4397452;32;20448;-72
2021/03/04 04:17:38;;;;;;;8.18;3.75;;;5.80;99.90;;;;;;4397265;32;20246;-72
2021/03/04 04:20:05;;;;;;;0.90;0.90;;;5.70;99.90;;;;;;4397437;32;20129;-72
2021/03/04 04:22:31;;;;;;;4.30;2.15;;;5.60;99.90;;;;;;4398901;32;20081;-72
2021/03/04 04:24:58;;;;;;;6.12;2.50;;;5.50;99.90;;;;;;4400283;32;20062;-72
2021/03/04 04:27:25;;;;;;;4.07;2.00;;;5.50;99.90;;;;;;4400221;32;20427;-74
2021/03/04 04:29:50;;;;;;;4.03;2.08;;;5.50;99.90;;;;;;4399247;32;20161;-74
2021/03/04 04:32:16;;;;;;;2.80;1.83;;;5.50;99.90;;;;;;4399808;32;20062;-74
2021/03/04 04:34:41;;;;;;;4.78;2.00;;;5.50;99.90;;;;;;4400910;32;20446;-74
2021/03/04 04:37:07;;;;;;;6.35;2.35;;;5.50;99.90;;;;;;4400950;32;20120;-74
2021/03/04 04:39:32;;;;;;;8.55;3.05;;;5.50;99.90;;;;;;4400420;32;20133;-74
2021/03/04 04:41:57;;;;;;;12.30;3.70;;;5.60;99.90;;;;;;4400323;32;20066;-74
2021/03/04 04:44:23;;;;;;;5.28;2.42;;;5.60;99.90;;;;;;4399323;32;20562;-74
2021/03/04 04:46:48;;;;;;;9.35;3.72;;;5.60;99.90;;;;;;4400117;32;20090;-74
2021/03/04 04:49:14;;;;;;;2.90;1.62;;;5.50;99.90;;;;;;4400025;32;20073;-74
2021/03/04 04:51:39;;;;;;;3.00;1.85;;;5.50;99.90;;;;;;4399856;32;20062;-74
2021/03/04 04:54:05;;;;;;;3.03;1.73;;;5.50;99.90;;;;;;4399158;32;20110;-74
2021/03/04 04:56:30;;;;;;;2.42;1.98;;;5.40;99.90;;;;;;4399500;32;20085;-74
2021/03/04 04:58:56;;;;;;;5.47;2.33;;;5.40;99.90;;;;;;4399174;32;20448;-74
2021/03/04 05:01:21;;;;;;;4.18;2.28;;;5.30;99.90;;;;;;4399654;32;20061;-74
2021/03/04 05:03:47;;;;;;;2.65;1.27;;;5.30;99.90;;;;;;4399468;32;20300;-74
2021/03/04 05:06:12;;;;;;;3.50;2.78;;;5.30;99.90;;;;;;4399580;32;20230;-74
2021/03/04 05:08:38;;;;;;;7.80;3.05;;;5.30;99.90;;;;;;4408631;32;20058;-74
2021/03/04 05:11:03;;;;;;;1.87;1.48;;;5.40;99.90;;;;;;4429268;32;20084;-74
2021/03/04 05:13:28;;;;;;;2.05;1.85;;;5.40;99.90;;;;;;4430065;32;20070;-74
2021/03/04 05:15:54;;;;;;;6.25;2.80;;;5.40;99.90;;;;;;4429549;32;20588;-74
2021/03/04 05:18:19;;;;;;;7.80;3.08;;;5.40;99.90;;;;;;4429483;32;20061;-74
2021/03/04 05:20:45;;;;;;;3.62;2.20;;;5.40;99.90;;;;;;4429798;32;20072;-74
2021/03/04 05:23:10;;;;;;;11.93;2.80;;;5.20;99.90;;;;;;4429823;32;20116;-73
2021/03/04 05:25:36;;;;;;;18.67;3.37;;;5.10;99.90;;;;;;4429912;32;20528;-74
2021/03/04 05:28:01;;;;;;;3.30;2.20;;;5.10;99.90;;;;;;4429403;32;20081;-74
2021/03/04 05:30:27;;;;;;;4.20;2.00;;;5.20;99.90;;;;;;4429674;32;20065;-74
2021/03/04 05:32:52;;;;;;;16.25;2.62;;;5.20;99.90;;;;;;4429122;32;20498;-74
2021/03/04 05:35:18;;;;;;;4.00;2.25;;;5.10;99.90;;;;;;4430353;32;20093;-74
2021/03/04 05:37:43;;;;;;;8.10;2.37;;;5.00;99.90;;;;;;4429570;32;20081;-74
2021/03/04 05:40:09;;;;;;;8.50;3.22;;;5.00;99.90;;;;;;4430244;32;20128;-74
2021/03/04 05:42:35;;;;;;;20.52;2.55;;;5.00;99.90;;;;;;4428954;32;20061;-74
2021/03/04 05:45:03;;;;;;;4.53;1.80;;;5.00;99.90;;;;;;4429313;32;20073;-73
2021/03/04 05:47:28;;;;;;;8.48;4.22;;;4.90;99.90;;;;;;4429214;32;20420;-74
2021/03/04 05:50:13;;;;;;;2.25;1.80;;;4.90;99.90;;;;;;4429603;32;20068;-74
2021/03/04 05:52:43;;;;;;;4.85;2.15;;;5.00;99.90;;;;;;4429349;32;20078;-74
2021/03/04 05:55:08;;;;;;;3.05;1.45;;;5.10;99.90;;;;;;4429335;32;20078;-74
2021/03/04 05:57:35;;;;;;;7.10;2.08;;;5.10;99.90;;;;;;4429318;32;20123;-74
2021/03/04 06:00:02;;;;;;;18.85;2.42;;;5.00;99.90;;;;;;4429372;32;20061;-74
2021/03/04 06:02:28;;;;;;;7.70;2.60;;;4.90;99.90;;;;;;4426722;32;20120;-74
2021/03/04 06:04:53;;;;;;;3.25;2.42;;;5.00;99.90;;;;;;4415997;32;20716;-74
2021/03/04 06:07:19;;;;;;;3.10;2.30;;;5.00;99.90;;;;;;4414643;32;20502;-74
2021/03/04 06:09:44;;;;;;;2.05;1.70;;;4.90;99.90;;;;;;4423816;32;20069;-74
2021/03/04 06:12:10;;;;;;;15.85;2.35;;;5.00;99.90;;;;;;4407361;32;20078;-74
2021/03/04 06:14:37;;;;;;;3.20;2.55;;;5.00;99.90;;;;;;4409682;32;20125;-74
2021/03/04 06:17:19;;;;;;;7.40;2.58;;;5.10;99.90;;;;;;4411142;32;20069;-74
2021/03/04 06:20:03;;;;;;;1.77;1.48;;;5.10;99.90;;;;;;4410017;32;20232;-74
2021/03/04 06:22:30;;;;;;;6.80;2.25;;;4.90;99.90;;;;;;4412329;32;20082;-74
2021/03/04 06:24:58;;;;;;;1.52;1.42;;;4.80;99.90;;;;;;4415655;32;20074;-74
2021/03/04 06:27:29;;;;;;;3.35;1.85;;;4.90;99.90;;;;;;4410184;32;20487;-74
2021/03/04 06:29:57;;;;;;;6.90;1.42;;;4.80;99.90;;;;;;4412506;32;20078;-74
2021/03/04 06:32:23;;;;;;;2.10;1.20;;;4.80;99.90;;;;;;4412261;32;20082;-74
2021/03/04 06:35:00;;;;;;;2.97;1.55;;;4.90;99.90;;;;;;4411345;32;20485;-74
2021/03/04 06:37:29;;;;;;;2.35;1.60;;;4.80;99.90;;;;;;4410450;32;20109;-74
2021/03/04 06:39:54;;;;;;;2.72;1.62;;;4.90;99.90;;;;;;4412467;32;20065;-74
2021/03/04 06:42:20;;;;;;;1.98;1.23;;;4.90;99.90;;;;;;4411105;32;20167;-73
2021/03/04 06:44:48;;;;;;;7.47;1.83;;;5.00;99.90;;;;;;4414144;32;20418;-73
2021/03/04 06:47:24;;;;;;;2.92;2.20;;;5.00;99.90;;;;;;4411836;32;20065;-73
2021/03/04 06:49:51;;;;;;;4.47;1.37;;;5.00;99.90;;;;;;4412257;32;20396;-73
2021/03/04 06:52:32;;;;;;;4.65;1.87;;;5.00;99.90;;;;;;4411445;32;20448;-73
2021/03/04 06:55:15;;;;;;;0.88;0.88;;;5.10;99.90;;;;;;4411950;32;20128;-74
2021/03/04 06:57:41;;;;;;;2.05;1.40;;;5.10;99.90;;;;;;4410647;32;20120;-74
2021/03/04 07:00:18;;;;;;;0.98;0.98;;;5.20;99.90;;;;;;4411798;32;20124;-75
2021/03/04 07:02:51;;;;;;;4.70;2.62;;;5.20;99.90;;;;;;4415382;32;20121;-74
2021/03/04 07:05:17;;;;;;;4.93;1.85;;;5.10;99.90;;;;;;4408887;32;20098;-74
2021/03/04 07:07:49;;;;;;;6.22;2.53;;;5.10;99.90;;;;;;4414692;32;20180;-74
2021/03/04 07:10:16;;;;;;;2.65;1.30;;;5.00;99.90;;;;;;4416776;32;20482;-74
2021/03/04 07:12:44;;;;;;;6.55;1.75;;;5.10;99.90;;;;;;4410413;32;20069;-74
2021/03/04 07:15:11;;;;;;;2.65;1.62;;;5.10;99.90;;;;;;4406848;32;20499;-75
2021/03/04 07:17:37;;;;;;;3.05;1.35;;;5.00;99.90;;;;;;4408003;32;20061;-74
2021/03/04 07:20:03;;;;;;;5.47;1.52;;;5.00;99.90;;;;;;4408456;32;20110;-74
2021/03/04 07:22:30;;;;;;;2.60;1.85;;;5.00;99.90;;;;;;4409843;32;20377;-74
2021/03/04 07:24:57;;;;;;;4.35;2.00;;;5.00;99.90;;;;;;4409082;32;20915;-74
2021/03/04 07:27:23;;;;;;;1.87;1.30;;;5.10;99.90;;;;;;4402125;32;20527;-74
2021/03/04 07:29:48;;;;;;;6.82;1.25;;;5.00;99.90;;;;;;4406622;32;20069;-74
2021/03/04 07:32:16;;;;;;;2.05;1.40;;;5.00;99.90;;;;;;4408368;32;20173;-74
2021/03/04 07:34:42;;;;;;;9.57;1.98;;;5.00;99.90;;;;;;4409224;32;20074;-74
2021/03/04 07:37:09;;;;;;;2.95;1.77;;;5.00;99.90;;;;;;4406593;32;20066;-74
2021/03/04 07:39:37;;;;;;;6.57;1.15;;;5.10;99.90;;;;;;4409437;32;20062;-74
2021/03/04 07:42:19;;;;;;;1.05;0.85;;;5.00;99.90;;;;;;4408712;32;20065;-74
2021/03/04 07:44:45;;;;;;;3.15;1.55;;;5.00;99.90;;;;;;4409114;32;20066;-74
2021/03/04 07:47:11;;;;;;;2.72;1.75;;;5.00;99.90;;;;;;4408568;32;20085;-75
2021/03/04 07:49:39;;;;;;;0.82;0.82;;;5.00;99.90;;;;;;4409336;32;20152;-74
2021/03/04 07:52:15;;;;;;;2.15;1.35;;;4.90;99.90;;;;;;4408935;32;20069;-73
2021/03/04 07:54:42;;;;;;;2.10;1.00;;;4.90;99.90;;;;;;4408314;32;20518;-74
2021/03/04 07:57:10;;;;;;;1.30;1.23;;;4.80;99.90;;;;;;4409872;32;20081;-73
2021/03/04 07:59:48;;;;;;;2.50;1.48;;;4.80;99.90;;;;;;4408809;32;20069;-73
2021/03/04 08:02:21;;;;;;;1.08;1.02;;;4.70;99.90;;;;;;4411927;32;20066;-73
2021/03/04 08:04:47;;;;;;;1.73;1.02;;;4.70;99.90;;;;;;4412428;32;20067;-73
2021/03/04 08:07:23;;;;;;;7.22;1.92;;;4.80;99.90;;;;;;4409181;32;20535;-73
2021/03/04 08:09:49;;;;;;;1.58;1.48;;;4.80;99.90;;;;;;4414641;32;20137;-73
2021/03/04 08:12:15;;;;;;;3.35;1.15;;;4.90;99.90;;;;;;4407795;32;20473;-74
2021/03/04 08:14:53;;;;;;;3.47;1.77;;;4.90;99.90;;;;;;4409961;32;20066;-73
2021/03/04 08:17:19;;;;;;;1.70;1.00;;;5.00;99.90;;;;;;4409305;32;20097;-73
2021/03/04 08:19:46;;;;;;;9.18;2.67;;;5.00;99.90;;;;;;4412197;32;20073;-73
2021/03/04 08:22:16;;;;;;;1.35;1.17;;;5.10;99.90;;;;;;4410099;32;20400;-73
2021/03/04 08:24:42;;;;;;;12.18;1.95;;;5.10;99.90;;;;;;4412251;32;20160;-74
2021/03/04 08:27:08;;;;;;;1.00;0.62;;;5.20;99.90;;;;;;4407927;32;20132;-74
2021/03/04 08:29:34;;;;;;;2.58;2.00;;;5.40;99.90;;;;;;4411492;32;20522;-73
2021/03/04 08:32:02;;;;;;;1.60;1.50;;;5.40;99.90;;;;;;4411478;32;20952;-74
2021/03/04 08:34:39;;;;;;;14.65;4.05;;;5.30;99.90;;;;;;4411379;32;20221;-74
2021/03/04 08:37:06;;;;;;;3.12;1.62;;;5.30;99.90;;;;;;4408471;32;20070;-74
2021/03/04 08:39:34;;;;;;;8.00;1.33;;;5.10;99.90;;;;;;4411612;32;20065;-74
2021/03/04 08:42:07;;;;;;;4.72;1.52;;;5.00;99.90;;;;;;4411757;32;20096;-74
2021/03/04 08:44:33;;;;;;;1.95;1.60;;;5.10;99.90;;;;;;4411820;32;20066;-74
2021/03/04 08:46:58;;;;;;;1.70;1.27;;;5.10;99.90;;;;;;4408426;32;20384;-74
2021/03/04 08:49:24;;;;;;;1.25;1.15;;;5.00;99.90;;;;;;4411978;32;20467;-74
2021/03/04 08:51:50;;;;;;;1.35;0.90;;;4.90;99.90;;;;;;4411603;32;20503;-74
2021/03/04 08:54:21;;;;;;;2.22;1.27;;;4.80;99.90;;;;;;4412168;32;20475;-74
2021/03/04 08:57:05;;;;;;;;;;;4.80;99.90;;;;;;4408612;32;20510;-74
2021/03/04 08:59:31;;;;;;;1.05;0.93;;;4.90;99.90;;;;;;4408714;32;20442;-74
2021/03/04 09:01:59;;;;;;;2.50;1.98;;;5.00;99.90;;;;;;4411253;32;20093;-74
2021/03/04 09:04:26;;;;;;;1.70;1.40;;;5.00;99.90;;;;;;4410792;32;20088;-74
2021/03/04 09:06:53;;;;;;;2.62;1.30;;;5.00;99.90;;;;;;4411656;32;20054;-74
2021/03/04 09:09:28;;;;;;;0.77;0.75;;;5.10;99.90;;;;;;4414026;32;20273;-74
2021/03/04 09:11:55;;;;;;;1.65;0.73;;;5.10;99.90;;;;;;4410952;32;20073;-74
2021/03/04 09:14:36;;;;;;;3.10;1.45;;;5.20;99.90;;;;;;4412578;32;20127;-74
2021/03/04 09:17:01;;;;;;;9.60;1.12;;;5.20;99.90;;;;;;4406314;32;20069;-74
2021/03/04 09:19:29;;;;;;;1.20;1.05;;;5.20;99.90;;;;;;4411010;32;20070;-74
2021/03/04 09:21:57;;;;;;;2.40;1.25;;;5.30;99.90;;;;;;4411114;32;20089;-74
2021/03/04 09:24:23;;;;;;;11.35;1.02;;;5.30;99.90;;;;;;4412569;32;20503;-74
2021/03/04 09:26:49;;;;;;;1.17;1.05;;;5.40;99.90;;;;;;4415026;32;20074;-74
2021/03/04 09:29:15;;;;;;;4.00;1.67;;;5.50;99.90;;;;;;4415750;32;20062;-74
2021/03/04 09:31:56;;;;;;;1.95;1.20;;;5.30;99.90;;;;;;4408879;32;20085;-74
2021/03/04 09:34:38;;;;;;;;;;;5.30;99.90;;;;;;4405446;32;20089;-74
2021/03/04 09:37:06;;;;;;;0.75;0.75;;;5.30;99.90;;;;;;4409898;32;20016;-74
2021/03/04 09:39:43;;;;;;;2.97;1.62;;;5.30;99.90;;;;;;4410970;32;20161;-74
2021/03/04 09:42:11;;;;;;;4.78;1.60;;;5.30;99.90;;;;;;4412634;32;20073;-74
2021/03/04 09:44:59;;;;;;;2.35;1.62;;;5.20;99.90;;;;;;4410120;32;20406;-74
2021/03/04 09:47:27;;;;;;;3.03;1.42;;;5.20;99.90;;;;;;4411736;32;20077;-74
2021/03/04 09:49:54;;;;;;;7.12;1.48;;;5.20;99.90;;;;;;4409829;32;20054;-74
2021/03/04 09:52:22;;;;;;;2.05;1.37;;;5.30;99.90;;;;;;4408069;32;20456;-74
2021/03/04 09:54:48;;;;;;;1.42;1.27;;;5.30;99.90;;;;;;4411679;32;20136;-74
2021/03/04 09:57:18;;;;;;;16.27;1.33;;;5.20;99.90;;;;;;4408763;32;20536;-74
2021/03/04 09:59:47;;;;;;;1.67;1.30;;;5.20;99.90;;;;;;4413083;32;20500;-74
2021/03/04 10:02:13;;;;;;;1.10;1.00;;;5.30;99.90;;;;;;4413531;32;20085;-74
2021/03/04 10:04:52;;;;;;;8.45;1.67;;;5.30;99.90;;;;;;4408654;32;20054;-74
2021/03/04 10:07:21;;;;;;;2.62;1.35;;;5.30;99.90;;;;;;4409555;32;20129;-74
2021/03/04 10:09:47;;;;;;;0.88;0.88;;;5.30;99.90;;;;;;4415249;32;20106;-73
2021/03/04 10:12:13;;;;;;;1.73;1.40;;;5.30;99.90;;;;;;4408181;32;20464;-73
2021/03/04 10:14:47;;;;;;;1.15;0.77;;;5.20;99.90;;;;;;4409775;32;20090;-74
2021/03/04 10:17:14;;;;;;;1.37;0.88;;;5.30;99.90;;;;;;4404019;32;20538;-74
2021/03/04 10:19:40;;;;;;;8.15;1.17;;;5.30;99.90;;;;;;4402440;32;20672;-75
2021/03/04 10:22:07;;;;;;;8.10;2.75;;;5.50;99.90;;;;;;4412058;32;20069;-73
2021/03/04 10:24:33;;;;;;;1.37;1.12;;;5.60;99.90;;;;;;4407855;32;20077;-73
2021/03/04 10:26:58;;;;;;;1.10;1.00;;;5.60;99.90;;;;;;4409292;32;20123;-74
2021/03/04 10:29:26;;;;;;;3.75;1.45;;;5.60;99.90;;;;;;4412226;32;20128;-74
2021/03/04 10:31:52;;;;;;;4.00;1.15;;;5.60;99.90;;;;;;4409759;32;20073;-73
2021/03/04 10:34:17;;;;;;;3.55;1.42;;;5.60;99.90;;;;;;4410760;32;20397;-74
2021/03/04 10:36:43;;;;;;;6.53;1.73;;;5.50;99.90;;;;;;4410778;32;20100;-75
2021/03/04 10:39:08;;;;;;;0.82;0.82;;;5.40;99.90;;;;;;4417660;32;20065;-74
2021/03/04 10:41:34;;;;;;;4.43;1.45;;;5.30;99.90;;;;;;4407004;32;20061;-75
2021/03/04 10:43:59;;;;;;;0.93;0.93;;;5.20;99.90;;;;;;4403961;32;75178;-75
2021/03/04 10:46:27;;;;;;;5.35;1.55;;;5.20;99.90;;;;;;4403649;32;20066;-75
2021/03/04 10:48:52;;;;;;;3.03;0.82;;;5.20;99.90;;;;;;4404985;32;20076;-75
2021/03/04 10:51:18;;;;;;;6.32;2.12;;;5.30;99.90;;;;;;4410228;32;20149;-75
2021/03/04 10:53:43;;;;;;;3.15;0.95;;;5.30;99.90;;;;;;4406409;32;20421;-75
2021/03/04 10:56:08;;;;;;;1.45;0.98;;;5.40;99.90;;;;;;4407436;32;20121;-75
2021/03/04 10:58:34;;;;;;;5.85;1.20;;;5.50;99.90;;;;;;4410744;32;20136;-73
2021/03/04 11:00:59;;;;;;;2.10;1.40;;;5.60;99.90;;;;;;4408525;32;20380;-75
2021/03/04 11:03:25;;;;;;;0.50;0.50;;;5.70;99.90;;;;;;4411290;32;20133;-74
2021/03/04 11:05:50;;;;;;;2.45;1.33;;;5.70;99.90;;;;;;4411173;32;20525;-74
2021/03/04 11:08:16;;;;;;;2.62;1.48;;;5.70;99.90;;;;;;4413993;32;20065;-74
2021/03/04 11:10:41;;;;;;;2.42;1.77;;;5.70;99.90;;;;;;4410551;32;20093;-74
2021/03/04 11:13:07;;;;;;;0.82;0.82;;;5.60;99.90;;;;;;4419389;32;20471;-73
2021/03/04 11:15:32;;;;;;;1.80;1.33;;;5.50;99.90;;;;;;4407971;32;20127;-74
2021/03/04 11:17:58;;;;;;;1.60;1.40;;;5.50;99.90;;;;;;4408474;32;20069;-73
2021/03/04 11:20:25;;;;;;;3.40;1.08;;;5.60;99.90;;;;;;4407621;32;20352;-74
2021/03/04 11:22:50;;;;;;;1.65;1.02;;;5.60;99.90;;;;;;4410432;32;20157;-73
2021/03/04 11:25:16;;;;;;;5.68;1.35;;;5.60;99.90;;;;;;4409738;32;20644;-74
2021/03/04 11:27:41;;;;;;;4.32;1.80;;;5.40;99.90;;;;;;4411834;32;20073;-74
2021/03/04 11:30:08;;;;;;;2.92;1.23;;;5.30;99.90;;;;;;4407472;32;20107;-73
2021/03/04 11:32:33;;;;;;;0.88;0.88;;;5.30;99.90;;;;;;4412237;32;20078;-73
2021/03/04 11:34:58;;;;;;;12.43;1.77;;;5.50;99.90;;;;;;4414508;32;20069;-73
2021/03/04 11:37:24;;;;;;;1.75;0.70;;;5.50;99.90;;;;;;4411850;32;20416;-73
2021/03/04 11:39:50;;;;;;;28.52;1.73;;;5.40;99.90;;;;;;4419372;32;20077;-73
2021/03/04 11:42:15;;;;;;;1.98;1.65;;;5.40;99.90;;;;;;4415584;32;20147;-74
2021/03/04 11:44:41;;;;;;;2.53;1.33;;;5.40;99.90;;;;;;4411046;32;20196;-73
2021/03/04 11:47:06;;;;;;;3.40;0.95;;;5.40;99.90;;;;;;4413023;32;20405;-74
2021/03/04 11:49:32;;;;;;;1.15;1.10;;;5.50;99.90;;;;;;4421482;32;20065;-74
2021/03/04 11:51:57;;;;;;;1.33;1.15;;;5.40;99.90;;;;;;4410347;32;20062;-74
2021/03/04 11:54:23;;;;;;;0.88;0.88;;;5.40;99.90;;;;;;4407829;32;20087;-74
2021/03/04 11:56:48;;;;;;;2.78;0.88;;;5.40;99.90;;;;;;4414196;32;20129;-74
2021/03/04 11:59:14;;;;;;;0.98;0.98;;;5.40;99.90;;;;;;4415627;32;20573;-74
2021/03/04 12:01:42;;;;;;;0.57;0.52;;;5.30;99.90;;;;;;4415945;32;20071;-74
2021/03/04 12:04:07;;;;;;;2.12;1.20;;;5.30;99.90;;;;;;4414966;32;20125;-74
2021/03/04 12:06:34;;;;;;;0.88;0.80;;;5.20;99.90;;;;;;4425487;32;20072;-74
2021/03/04 12:09:00;;;;;;;5.45;1.10;;;5.20;99.90;;;;;;4421106;32;20074;-74
2021/03/04 12:11:25;;;;;;;3.60;1.45;;;5.20;99.90;;;;;;4413497;32;20097;-74
2021/03/04 12:13:50;;;;;;;1.12;1.02;;;5.20;99.90;;;;;;4408871;32;20584;-74
2021/03/04 12:16:16;;;;;;;0.80;0.80;;;5.30;99.90;;;;;;4410229;32;20124;-74
2021/03/04 12:18:41;;;;;;;0.30;0.30;;;5.20;99.90;;;;;;4412704;32;20197;-74
2021/03/04 12:21:07;;;;;;;1.00;0.95;;;5.20;99.90;;;;;;4410369;32;20094;-74
2021/03/04 12:23:33;;;;;;;2.83;0.65;;;5.10;99.90;;;;;;4412115;32;20535;-74
2021/03/04 12:25:58;;;;;;;1.20;0.85;;;5.10;99.90;;;;;;4407840;32;20089;-74
2021/03/04 12:28:24;;;;;;;2.17;1.15;;;5.10;99.90;;;;;;4410295;32;20128;-74
2021/03/04 12:30:49;;;;;;;0.85;0.85;;;5.10;99.90;;;;;;4410409;32;20078;-74
2021/03/04 12:33:15;;;;;;;4.32;1.08;;;5.10;99.90;;;;;;4412037;32;20082;-74
2021/03/04 12:35:41;;;;;;;0.40;0.40;;;5.00;99.90;;;;;;4410832;32;20069;-74
2021/03/04 12:38:07;;;;;;;0.40;0.40;;;4.90;99.90;;;;;;4408436;32;20168;-74
2021/03/04 12:40:34;;;;;;;1.10;0.98;;;4.90;99.90;;;;;;4413340;32;20127;-74
2021/03/04 12:43:00;;;;;;;0.70;0.70;;;5.00;99.90;;;;;;4408422;32;20066;-74
2021/03/04 12:45:26;;;;;;;0.62;0.60;;;5.00;99.90;;;;;;4410543;32;20220;-73
2021/03/04 12:47:52;;;;;;;0.50;0.50;;;4.90;99.90;;;;;;4411059;32;20077;-74
2021/03/04 12:50:17;;;;;;;1.75;0.75;;;5.00;99.90;;;;;;4413306;32;20070;-74
2021/03/04 12:52:43;;;;;;;3.67;0.80;;;4.90;99.90;;;;;;4413174;32;20467;-75
2021/03/04 12:55:10;;;;;;;1.02;0.93;;;5.00;99.90;;;;;;4413149;32;20415;-74
2021/03/04 12:57:35;;;;;;;1.95;0.85;;;5.10;99.90;;;;;;4412448;32;20098;-74